sensor_id;sensor_type;location;lat;lon;timestamp;P1;durP1;ratioP1;P2;durP2;ratioP2
16314;SDS011;8266;52.150;4.768;2023-02-15T00:01:36;16.27;;;13.10;;
16314;SDS011;8266;52.150;4.768;2023-02-15T00:04:04;15.93;;;13.20;;
16314;SDS011;8266;52.150;4.768;2023-02-15T00:06:32;15.70;;;14.00;;
16314;SDS011;8266;52.150;4.768;2023-02-15T00:08:59;18.00;;;14.15;;
16314;SDS011;8266;52.150;4.768;2023-02-15T00:11:26;17.17;;;14.32;;
16314;SDS011;8266;52.150;4.768;2023-02-15T00:14:08;21.08;;;16.55;;
16314;SDS011;8266;52.150;4.768;2023-02-15T00:16:40;20.88;;;16.70;;
16314;SDS011;8266;52.150;4.768;2023-02-15T00:19:09;21.30;;;17.15;;
16314;SDS011;8266;52.150;4.768;2023-02-15T00:21:37;24.25;;;18.58;;
16314;SDS011;8266;52.150;4.768;2023-02-15T00:24:06;23.73;;;19.13;;
16314;SDS011;8266;52.150;4.768;2023-02-15T00:26:35;24.50;;;19.15;;
16314;SDS011;8266;52.150;4.768;2023-02-15T00:29:04;26.65;;;20.88;;
16314;SDS011;8266;52.150;4.768;2023-02-15T00:31:32;26.23;;;20.05;;
16314;SDS011;8266;52.150;4.768;2023-02-15T00:34:02;28.15;;;21.95;;
16314;SDS011;8266;52.150;4.768;2023-02-15T00:36:30;26.60;;;20.98;;
16314;SDS011;8266;52.150;4.768;2023-02-15T00:38:57;27.42;;;20.67;;
16314;SDS011;8266;52.150;4.768;2023-02-15T00:41:24;29.90;;;23.15;;
16314;SDS011;8266;52.150;4.768;2023-02-15T00:43:51;25.38;;;20.70;;
16314;SDS011;8266;52.150;4.768;2023-02-15T00:46:19;29.25;;;20.88;;
16314;SDS011;8266;52.150;4.768;2023-02-15T00:48:47;23.67;;;19.00;;
16314;SDS011;8266;52.150;4.768;2023-02-15T00:51:15;24.98;;;18.30;;
16314;SDS011;8266;52.150;4.768;2023-02-15T00:53:45;25.83;;;19.25;;
16314;SDS011;8266;52.150;4.768;2023-02-15T00:56:12;20.90;;;17.00;;
16314;SDS011;8266;52.150;4.768;2023-02-15T00:58:40;22.30;;;18.27;;
16314;SDS011;8266;52.150;4.768;2023-02-15T01:01:08;19.77;;;17.45;;
16314;SDS011;8266;52.150;4.768;2023-02-15T01:03:41;23.58;;;18.55;;
16314;SDS011;8266;52.150;4.768;2023-02-15T01:06:09;22.88;;;17.73;;
16314;SDS011;8266;52.150;4.768;2023-02-15T01:08:39;21.73;;;17.45;;
16314;SDS011;8266;52.150;4.768;2023-02-15T01:11:09;21.77;;;17.00;;
16314;SDS011;8266;52.150;4.768;2023-02-15T01:13:37;21.95;;;18.48;;
16314;SDS011;8266;52.150;4.768;2023-02-15T01:16:05;21.10;;;17.23;;
16314;SDS011;8266;52.150;4.768;2023-02-15T01:18:33;21.50;;;16.48;;
16314;SDS011;8266;52.150;4.768;2023-02-15T01:21:00;22.00;;;17.70;;
16314;SDS011;8266;52.150;4.768;2023-02-15T01:23:35;22.52;;;17.98;;
16314;SDS011;8266;52.150;4.768;2023-02-15T01:26:04;21.17;;;16.98;;
16314;SDS011;8266;52.150;4.768;2023-02-15T01:28:31;23.23;;;16.92;;
16314;SDS011;8266;52.150;4.768;2023-02-15T01:30:58;22.05;;;17.63;;
16314;SDS011;8266;52.150;4.768;2023-02-15T01:33:26;20.08;;;16.38;;
16314;SDS011;8266;52.150;4.768;2023-02-15T01:35:55;23.05;;;17.08;;
16314;SDS011;8266;52.150;4.768;2023-02-15T01:38:23;20.75;;;16.80;;
16314;SDS011;8266;52.150;4.768;2023-02-15T01:40:51;17.88;;;15.23;;
16314;SDS011;8266;52.150;4.768;2023-02-15T01:43:20;20.77;;;15.85;;
16314;SDS011;8266;52.150;4.768;2023-02-15T01:45:47;17.85;;;15.20;;
16314;SDS011;8266;52.150;4.768;2023-02-15T01:48:17;17.50;;;14.95;;
16314;SDS011;8266;52.150;4.768;2023-02-15T01:50:47;19.38;;;15.73;;
16314;SDS011;8266;52.150;4.768;2023-02-15T01:53:19;19.20;;;15.48;;
16314;SDS011;8266;52.150;4.768;2023-02-15T01:55:50;16.83;;;14.40;;
16314;SDS011;8266;52.150;4.768;2023-02-15T01:58:23;19.00;;;15.27;;
16314;SDS011;8266;52.150;4.768;2023-02-15T02:00:54;18.75;;;14.98;;
16314;SDS011;8266;52.150;4.768;2023-02-15T02:03:27;16.17;;;14.43;;
16314;SDS011;8266;52.150;4.768;2023-02-15T02:06:02;16.70;;;12.88;;
16314;SDS011;8266;52.150;4.768;2023-02-15T02:08:29;15.80;;;13.60;;
16314;SDS011;8266;52.150;4.768;2023-02-15T02:10:57;14.20;;;12.52;;
16314;SDS011;8266;52.150;4.768;2023-02-15T02:13:26;14.80;;;12.15;;
16314;SDS011;8266;52.150;4.768;2023-02-15T02:15:54;16.10;;;12.68;;
16314;SDS011;8266;52.150;4.768;2023-02-15T02:18:31;13.88;;;12.43;;
16314;SDS011;8266;52.150;4.768;2023-02-15T02:21:11;14.13;;;12.32;;
16314;SDS011;8266;52.150;4.768;2023-02-15T02:24:15;13.98;;;12.38;;
16314;SDS011;8266;52.150;4.768;2023-02-15T02:30:16;14.15;;;12.63;;
16314;SDS011;8266;52.150;4.768;2023-02-15T02:33:14;16.75;;;13.23;;
16314;SDS011;8266;52.150;4.768;2023-02-15T02:36:00;16.42;;;12.77;;
16314;SDS011;8266;52.150;4.768;2023-02-15T02:38:37;15.45;;;13.30;;
16314;SDS011;8266;52.150;4.768;2023-02-15T02:41:13;17.10;;;11.95;;
16314;SDS011;8266;52.150;4.768;2023-02-15T02:43:47;12.85;;;10.73;;
16314;SDS011;8266;52.150;4.768;2023-02-15T02:46:22;12.75;;;11.20;;
16314;SDS011;8266;52.150;4.768;2023-02-15T02:48:55;11.57;;;10.35;;
16314;SDS011;8266;52.150;4.768;2023-02-15T02:51:23;12.48;;;11.18;;
16314;SDS011;8266;52.150;4.768;2023-02-15T02:53:51;12.60;;;11.02;;
16314;SDS011;8266;52.150;4.768;2023-02-15T02:56:23;11.95;;;10.75;;
16314;SDS011;8266;52.150;4.768;2023-02-15T02:58:55;10.88;;;9.80;;
16314;SDS011;8266;52.150;4.768;2023-02-15T03:01:28;9.60;;;8.70;;
16314;SDS011;8266;52.150;4.768;2023-02-15T03:04:03;9.30;;;8.40;;
16314;SDS011;8266;52.150;4.768;2023-02-15T03:06:35;8.35;;;7.55;;
16314;SDS011;8266;52.150;4.768;2023-02-15T03:09:08;8.70;;;7.90;;
16314;SDS011;8266;52.150;4.768;2023-02-15T03:11:40;9.13;;;8.25;;
16314;SDS011;8266;52.150;4.768;2023-02-15T03:14:09;7.85;;;7.15;;
16314;SDS011;8266;52.150;4.768;2023-02-15T03:16:37;9.23;;;8.18;;
16314;SDS011;8266;52.150;4.768;2023-02-15T03:19:08;7.82;;;7.10;;
16314;SDS011;8266;52.150;4.768;2023-02-15T03:21:38;8.45;;;7.65;;
16314;SDS011;8266;52.150;4.768;2023-02-15T03:24:15;8.82;;;7.95;;
16314;SDS011;8266;52.150;4.768;2023-02-15T03:26:47;8.75;;;7.78;;
16314;SDS011;8266;52.150;4.768;2023-02-15T03:29:16;8.23;;;7.43;;
16314;SDS011;8266;52.150;4.768;2023-02-15T03:31:59;9.23;;;8.02;;
16314;SDS011;8266;52.150;4.768;2023-02-15T03:34:31;9.93;;;8.95;;
16314;SDS011;8266;52.150;4.768;2023-02-15T03:36:59;10.25;;;9.20;;
16314;SDS011;8266;52.150;4.768;2023-02-15T03:39:35;10.40;;;9.40;;
16314;SDS011;8266;52.150;4.768;2023-02-15T03:42:09;11.40;;;9.65;;
16314;SDS011;8266;52.150;4.768;2023-02-15T03:44:41;12.77;;;10.73;;
16314;SDS011;8266;52.150;4.768;2023-02-15T03:47:14;11.93;;;9.85;;
16314;SDS011;8266;52.150;4.768;2023-02-15T03:49:48;10.45;;;9.30;;
16314;SDS011;8266;52.150;4.768;2023-02-15T03:52:19;12.90;;;10.70;;
16314;SDS011;8266;52.150;4.768;2023-02-15T03:57:24;13.75;;;10.40;;
16314;SDS011;8266;52.150;4.768;2023-02-15T04:00:12;13.65;;;10.77;;
16314;SDS011;8266;52.150;4.768;2023-02-15T04:03:12;10.75;;;9.63;;
16314;SDS011;8266;52.150;4.768;2023-02-15T04:05:50;15.30;;;11.45;;
16314;SDS011;8266;52.150;4.768;2023-02-15T04:08:18;14.68;;;12.77;;
16314;SDS011;8266;52.150;4.768;2023-02-15T04:10:45;16.25;;;12.95;;
16314;SDS011;8266;52.150;4.768;2023-02-15T04:13:23;15.95;;;13.45;;
16314;SDS011;8266;52.150;4.768;2023-02-15T04:15:56;17.33;;;13.18;;
16314;SDS011;8266;52.150;4.768;2023-02-15T04:18:28;17.33;;;13.52;;
16314;SDS011;8266;52.150;4.768;2023-02-15T04:21:14;16.13;;;13.82;;
16314;SDS011;8266;52.150;4.768;2023-02-15T04:23:59;18.63;;;13.80;;
16314;SDS011;8266;52.150;4.768;2023-02-15T04:26:43;18.58;;;14.25;;
16314;SDS011;8266;52.150;4.768;2023-02-15T04:29:14;17.40;;;14.43;;
16314;SDS011;8266;52.150;4.768;2023-02-15T04:31:41;20.45;;;16.38;;
16314;SDS011;8266;52.150;4.768;2023-02-15T04:34:27;19.73;;;15.68;;
16314;SDS011;8266;52.150;4.768;2023-02-15T04:36:56;22.13;;;17.08;;
16314;SDS011;8266;52.150;4.768;2023-02-15T04:39:23;18.75;;;16.08;;
16314;SDS011;8266;52.150;4.768;2023-02-15T04:41:50;23.95;;;17.85;;
16314;SDS011;8266;52.150;4.768;2023-02-15T04:44:17;24.50;;;17.13;;
16314;SDS011;8266;52.150;4.768;2023-02-15T04:46:44;22.17;;;18.13;;
16314;SDS011;8266;52.150;4.768;2023-02-15T04:49:12;25.83;;;17.58;;
16314;SDS011;8266;52.150;4.768;2023-02-15T04:51:39;20.70;;;17.45;;
16314;SDS011;8266;52.150;4.768;2023-02-15T04:54:07;28.05;;;18.83;;
16314;SDS011;8266;52.150;4.768;2023-02-15T04:56:34;20.40;;;16.95;;
16314;SDS011;8266;52.150;4.768;2023-02-15T04:59:02;24.73;;;18.75;;
16314;SDS011;8266;52.150;4.768;2023-02-15T05:01:29;24.15;;;18.52;;
16314;SDS011;8266;52.150;4.768;2023-02-15T05:03:58;22.60;;;18.27;;
16314;SDS011;8266;52.150;4.768;2023-02-15T05:06:24;25.38;;;19.20;;
16314;SDS011;8266;52.150;4.768;2023-02-15T05:08:52;23.70;;;18.80;;
16314;SDS011;8266;52.150;4.768;2023-02-15T05:11:20;24.35;;;18.67;;
16314;SDS011;8266;52.150;4.768;2023-02-15T05:13:48;25.92;;;18.98;;
16314;SDS011;8266;52.150;4.768;2023-02-15T05:16:16;22.88;;;17.02;;
16314;SDS011;8266;52.150;4.768;2023-02-15T05:18:44;23.35;;;18.00;;
16314;SDS011;8266;52.150;4.768;2023-02-15T05:21:14;22.52;;;18.52;;
16314;SDS011;8266;52.150;4.768;2023-02-15T05:23:43;28.83;;;19.15;;
16314;SDS011;8266;52.150;4.768;2023-02-15T05:26:11;23.08;;;17.38;;
16314;SDS011;8266;52.150;4.768;2023-02-15T05:28:57;21.02;;;16.83;;
16314;SDS011;8266;52.150;4.768;2023-02-15T05:31:24;22.15;;;17.25;;
16314;SDS011;8266;52.150;4.768;2023-02-15T05:33:52;21.88;;;16.92;;
16314;SDS011;8266;52.150;4.768;2023-02-15T05:36:19;23.60;;;17.50;;
16314;SDS011;8266;52.150;4.768;2023-02-15T05:38:46;21.35;;;17.92;;
16314;SDS011;8266;52.150;4.768;2023-02-15T05:41:18;23.20;;;18.73;;
16314;SDS011;8266;52.150;4.768;2023-02-15T05:43:45;25.67;;;18.88;;
16314;SDS011;8266;52.150;4.768;2023-02-15T05:49:19;21.02;;;15.90;;
16314;SDS011;8266;52.150;4.768;2023-02-15T05:51:46;22.13;;;17.30;;
16314;SDS011;8266;52.150;4.768;2023-02-15T05:54:13;22.67;;;17.55;;
16314;SDS011;8266;52.150;4.768;2023-02-15T05:56:42;21.45;;;17.27;;
16314;SDS011;8266;52.150;4.768;2023-02-15T05:59:17;22.77;;;16.98;;
16314;SDS011;8266;52.150;4.768;2023-02-15T06:01:44;24.40;;;17.23;;
16314;SDS011;8266;52.150;4.768;2023-02-15T06:04:12;24.10;;;17.95;;
16314;SDS011;8266;52.150;4.768;2023-02-15T06:06:40;23.98;;;19.23;;
16314;SDS011;8266;52.150;4.768;2023-02-15T06:09:08;25.55;;;19.00;;
16314;SDS011;8266;52.150;4.768;2023-02-15T06:11:36;22.95;;;18.15;;
16314;SDS011;8266;52.150;4.768;2023-02-15T06:14:03;25.17;;;18.80;;
16314;SDS011;8266;52.150;4.768;2023-02-15T06:19:18;25.60;;;18.08;;
16314;SDS011;8266;52.150;4.768;2023-02-15T06:21:47;21.70;;;18.00;;
16314;SDS011;8266;52.150;4.768;2023-02-15T06:24:14;22.67;;;17.70;;
16314;SDS011;8266;52.150;4.768;2023-02-15T06:26:56;22.50;;;18.17;;
16314;SDS011;8266;52.150;4.768;2023-02-15T06:32:22;22.20;;;17.08;;
16314;SDS011;8266;52.150;4.768;2023-02-15T06:34:49;24.42;;;18.73;;
16314;SDS011;8266;52.150;4.768;2023-02-15T06:37:17;24.50;;;19.13;;
16314;SDS011;8266;52.150;4.768;2023-02-15T06:39:44;25.52;;;19.05;;
16314;SDS011;8266;52.150;4.768;2023-02-15T06:42:11;21.75;;;17.17;;
16314;SDS011;8266;52.150;4.768;2023-02-15T06:44:38;24.08;;;18.95;;
16314;SDS011;8266;52.150;4.768;2023-02-15T06:47:05;24.98;;;18.52;;
16314;SDS011;8266;52.150;4.768;2023-02-15T06:49:34;22.70;;;18.23;;
16314;SDS011;8266;52.150;4.768;2023-02-15T06:52:01;24.17;;;19.25;;
16314;SDS011;8266;52.150;4.768;2023-02-15T06:54:29;24.02;;;19.00;;
16314;SDS011;8266;52.150;4.768;2023-02-15T06:56:56;29.98;;;20.90;;
16314;SDS011;8266;52.150;4.768;2023-02-15T06:59:24;29.70;;;22.35;;
16314;SDS011;8266;52.150;4.768;2023-02-15T07:01:51;27.38;;;21.02;;
16314;SDS011;8266;52.150;4.768;2023-02-15T07:04:18;29.05;;;20.85;;
16314;SDS011;8266;52.150;4.768;2023-02-15T07:06:45;29.17;;;22.40;;
16314;SDS011;8266;52.150;4.768;2023-02-15T07:09:12;30.45;;;21.85;;
16314;SDS011;8266;52.150;4.768;2023-02-15T07:11:40;30.58;;;22.67;;
16314;SDS011;8266;52.150;4.768;2023-02-15T07:14:27;31.50;;;23.27;;
16314;SDS011;8266;52.150;4.768;2023-02-15T07:16:54;29.67;;;21.83;;
16314;SDS011;8266;52.150;4.768;2023-02-15T07:19:21;28.15;;;21.83;;
16314;SDS011;8266;52.150;4.768;2023-02-15T07:21:48;32.80;;;22.58;;
16314;SDS011;8266;52.150;4.768;2023-02-15T07:24:16;32.80;;;22.00;;
16314;SDS011;8266;52.150;4.768;2023-02-15T07:26:45;29.95;;;22.45;;
16314;SDS011;8266;52.150;4.768;2023-02-15T07:29:12;29.80;;;20.83;;
16314;SDS011;8266;52.150;4.768;2023-02-15T07:31:40;28.48;;;22.17;;
16314;SDS011;8266;52.150;4.768;2023-02-15T07:34:11;33.72;;;21.85;;
16314;SDS011;8266;52.150;4.768;2023-02-15T07:36:38;29.88;;;23.67;;
16314;SDS011;8266;52.150;4.768;2023-02-15T07:39:07;32.55;;;23.08;;
16314;SDS011;8266;52.150;4.768;2023-02-15T07:41:34;32.95;;;24.13;;
16314;SDS011;8266;52.150;4.768;2023-02-15T07:44:02;30.52;;;21.65;;
16314;SDS011;8266;52.150;4.768;2023-02-15T07:46:43;27.23;;;20.48;;
16314;SDS011;8266;52.150;4.768;2023-02-15T07:49:10;26.20;;;20.63;;
16314;SDS011;8266;52.150;4.768;2023-02-15T07:51:37;29.50;;;21.92;;
16314;SDS011;8266;52.150;4.768;2023-02-15T07:54:05;26.98;;;21.77;;
16314;SDS011;8266;52.150;4.768;2023-02-15T07:56:33;30.40;;;22.65;;
16314;SDS011;8266;52.150;4.768;2023-02-15T07:59:00;33.10;;;23.45;;
16314;SDS011;8266;52.150;4.768;2023-02-15T08:01:31;32.00;;;23.27;;
16314;SDS011;8266;52.150;4.768;2023-02-15T08:04:00;31.05;;;23.63;;
16314;SDS011;8266;52.150;4.768;2023-02-15T08:06:29;28.58;;;22.85;;
16314;SDS011;8266;52.150;4.768;2023-02-15T08:08:57;34.60;;;23.30;;
16314;SDS011;8266;52.150;4.768;2023-02-15T08:11:26;28.23;;;21.73;;
16314;SDS011;8266;52.150;4.768;2023-02-15T08:13:58;29.38;;;20.73;;
16314;SDS011;8266;52.150;4.768;2023-02-15T08:16:30;24.90;;;20.42;;
16314;SDS011;8266;52.150;4.768;2023-02-15T08:19:00;25.30;;;20.15;;
16314;SDS011;8266;52.150;4.768;2023-02-15T08:21:30;27.65;;;20.88;;
16314;SDS011;8266;52.150;4.768;2023-02-15T08:23:58;25.85;;;20.45;;
16314;SDS011;8266;52.150;4.768;2023-02-15T08:26:25;27.83;;;21.48;;
16314;SDS011;8266;52.150;4.768;2023-02-15T08:28:53;28.90;;;21.17;;
16314;SDS011;8266;52.150;4.768;2023-02-15T08:31:21;27.27;;;21.25;;
16314;SDS011;8266;52.150;4.768;2023-02-15T08:33:50;26.98;;;20.98;;
16314;SDS011;8266;52.150;4.768;2023-02-15T08:36:19;26.88;;;21.55;;
16314;SDS011;8266;52.150;4.768;2023-02-15T08:38:48;27.55;;;21.90;;
16314;SDS011;8266;52.150;4.768;2023-02-15T08:41:16;25.92;;;21.58;;
16314;SDS011;8266;52.150;4.768;2023-02-15T08:43:45;28.85;;;21.27;;
16314;SDS011;8266;52.150;4.768;2023-02-15T08:46:14;25.20;;;20.92;;
16314;SDS011;8266;52.150;4.768;2023-02-15T08:48:42;28.40;;;21.92;;
16314;SDS011;8266;52.150;4.768;2023-02-15T08:51:12;28.45;;;21.33;;
16314;SDS011;8266;52.150;4.768;2023-02-15T08:53:41;28.70;;;21.48;;
16314;SDS011;8266;52.150;4.768;2023-02-15T08:56:09;29.52;;;21.13;;
16314;SDS011;8266;52.150;4.768;2023-02-15T08:58:36;26.83;;;20.08;;
16314;SDS011;8266;52.150;4.768;2023-02-15T09:01:10;26.70;;;20.92;;
16314;SDS011;8266;52.150;4.768;2023-02-15T09:03:39;26.83;;;20.75;;
16314;SDS011;8266;52.150;4.768;2023-02-15T09:06:06;25.55;;;20.63;;
16314;SDS011;8266;52.150;4.768;2023-02-15T09:08:35;25.98;;;21.88;;
16314;SDS011;8266;52.150;4.768;2023-02-15T09:11:08;26.85;;;21.63;;
16314;SDS011;8266;52.150;4.768;2023-02-15T09:13:37;27.10;;;20.67;;
16314;SDS011;8266;52.150;4.768;2023-02-15T09:16:06;27.27;;;21.48;;
16314;SDS011;8266;52.150;4.768;2023-02-15T09:18:36;24.13;;;19.75;;
16314;SDS011;8266;52.150;4.768;2023-02-15T09:21:05;26.58;;;20.27;;
16314;SDS011;8266;52.150;4.768;2023-02-15T09:23:35;26.35;;;21.65;;
16314;SDS011;8266;52.150;4.768;2023-02-15T09:28:35;28.88;;;22.02;;
16314;SDS011;8266;52.150;4.768;2023-02-15T09:31:06;25.33;;;20.75;;
16314;SDS011;8266;52.150;4.768;2023-02-15T09:33:40;25.42;;;20.17;;
16314;SDS011;8266;52.150;4.768;2023-02-15T09:36:20;27.48;;;21.33;;
16314;SDS011;8266;52.150;4.768;2023-02-15T09:38:53;25.17;;;21.38;;
16314;SDS011;8266;52.150;4.768;2023-02-15T09:41:26;24.67;;;20.20;;
16314;SDS011;8266;52.150;4.768;2023-02-15T09:44:19;28.75;;;21.70;;
16314;SDS011;8266;52.150;4.768;2023-02-15T09:49:48;25.27;;;20.83;;
16314;SDS011;8266;52.150;4.768;2023-02-15T09:52:26;23.08;;;19.50;;
16314;SDS011;8266;52.150;4.768;2023-02-15T09:55:09;26.92;;;21.23;;
16314;SDS011;8266;52.150;4.768;2023-02-15T09:57:45;23.17;;;20.27;;
16314;SDS011;8266;52.150;4.768;2023-02-15T10:00:23;24.13;;;20.20;;
16314;SDS011;8266;52.150;4.768;2023-02-15T10:03:02;24.85;;;20.25;;
16314;SDS011;8266;52.150;4.768;2023-02-15T10:05:42;27.35;;;22.13;;
16314;SDS011;8266;52.150;4.768;2023-02-15T10:08:21;27.10;;;21.60;;
16314;SDS011;8266;52.150;4.768;2023-02-15T10:11:02;29.50;;;21.92;;
16314;SDS011;8266;52.150;4.768;2023-02-15T10:13:51;26.20;;;21.13;;
16314;SDS011;8266;52.150;4.768;2023-02-15T10:16:30;26.48;;;21.67;;
16314;SDS011;8266;52.150;4.768;2023-02-15T10:19:07;25.95;;;21.15;;
16314;SDS011;8266;52.150;4.768;2023-02-15T10:24:20;25.83;;;22.30;;
16314;SDS011;8266;52.150;4.768;2023-02-15T10:27:07;26.55;;;21.63;;
16314;SDS011;8266;52.150;4.768;2023-02-15T10:29:39;28.63;;;22.48;;
16314;SDS011;8266;52.150;4.768;2023-02-15T10:32:15;28.65;;;22.55;;
16314;SDS011;8266;52.150;4.768;2023-02-15T10:34:50;27.77;;;23.55;;
16314;SDS011;8266;52.150;4.768;2023-02-15T10:37:34;28.10;;;22.98;;
16314;SDS011;8266;52.150;4.768;2023-02-15T10:40:22;28.77;;;22.42;;
16314;SDS011;8266;52.150;4.768;2023-02-15T10:43:04;28.52;;;22.40;;
16314;SDS011;8266;52.150;4.768;2023-02-15T10:45:40;29.13;;;22.60;;
16314;SDS011;8266;52.150;4.768;2023-02-15T10:48:29;28.58;;;22.23;;
16314;SDS011;8266;52.150;4.768;2023-02-15T10:51:06;32.30;;;24.63;;
16314;SDS011;8266;52.150;4.768;2023-02-15T10:53:52;32.50;;;24.38;;
16314;SDS011;8266;52.150;4.768;2023-02-15T10:59:20;33.40;;;26.38;;
16314;SDS011;8266;52.150;4.768;2023-02-15T11:02:02;30.83;;;24.10;;
16314;SDS011;8266;52.150;4.768;2023-02-15T11:04:44;36.60;;;26.95;;
16314;SDS011;8266;52.150;4.768;2023-02-15T11:07:17;32.63;;;25.73;;
16314;SDS011;8266;52.150;4.768;2023-02-15T11:09:50;30.92;;;24.95;;
16314;SDS011;8266;52.150;4.768;2023-02-15T11:12:21;32.13;;;24.67;;
16314;SDS011;8266;52.150;4.768;2023-02-15T11:14:54;32.88;;;26.38;;
16314;SDS011;8266;52.150;4.768;2023-02-15T11:17:25;31.67;;;24.58;;
16314;SDS011;8266;52.150;4.768;2023-02-15T11:20:00;28.63;;;24.20;;
16314;SDS011;8266;52.150;4.768;2023-02-15T11:22:34;35.08;;;26.40;;
16314;SDS011;8266;52.150;4.768;2023-02-15T11:25:04;31.60;;;25.05;;
16314;SDS011;8266;52.150;4.768;2023-02-15T11:27:42;30.20;;;24.35;;
16314;SDS011;8266;52.150;4.768;2023-02-15T11:30:14;33.22;;;24.77;;
16314;SDS011;8266;52.150;4.768;2023-02-15T11:32:45;34.53;;;27.45;;
16314;SDS011;8266;52.150;4.768;2023-02-15T11:35:20;31.38;;;25.20;;
16314;SDS011;8266;52.150;4.768;2023-02-15T11:37:53;32.83;;;25.63;;
16314;SDS011;8266;52.150;4.768;2023-02-15T11:40:28;32.55;;;25.38;;
16314;SDS011;8266;52.150;4.768;2023-02-15T11:43:00;31.35;;;26.20;;
16314;SDS011;8266;52.150;4.768;2023-02-15T11:45:33;31.23;;;25.45;;
16314;SDS011;8266;52.150;4.768;2023-02-15T11:48:01;32.72;;;24.60;;
16314;SDS011;8266;52.150;4.768;2023-02-15T11:50:36;35.67;;;26.33;;
16314;SDS011;8266;52.150;4.768;2023-02-15T11:53:03;34.13;;;26.00;;
16314;SDS011;8266;52.150;4.768;2023-02-15T11:55:32;34.58;;;26.10;;
16314;SDS011;8266;52.150;4.768;2023-02-15T11:58:01;35.65;;;26.80;;
16314;SDS011;8266;52.150;4.768;2023-02-15T12:00:34;33.25;;;26.23;;
16314;SDS011;8266;52.150;4.768;2023-02-15T12:03:07;31.10;;;25.35;;
16314;SDS011;8266;52.150;4.768;2023-02-15T12:05:40;29.70;;;24.90;;
16314;SDS011;8266;52.150;4.768;2023-02-15T12:08:12;29.90;;;25.95;;
16314;SDS011;8266;52.150;4.768;2023-02-15T12:10:44;34.65;;;26.23;;
16314;SDS011;8266;52.150;4.768;2023-02-15T12:13:29;32.58;;;25.25;;
16314;SDS011;8266;52.150;4.768;2023-02-15T12:15:58;30.45;;;24.00;;
16314;SDS011;8266;52.150;4.768;2023-02-15T12:18:43;31.00;;;25.77;;
16314;SDS011;8266;52.150;4.768;2023-02-15T12:21:14;32.75;;;26.52;;
16314;SDS011;8266;52.150;4.768;2023-02-15T12:23:46;33.85;;;25.77;;
16314;SDS011;8266;52.150;4.768;2023-02-15T12:26:22;35.15;;;24.90;;
16314;SDS011;8266;52.150;4.768;2023-02-15T12:28:50;33.30;;;24.23;;
16314;SDS011;8266;52.150;4.768;2023-02-15T12:31:24;30.88;;;25.38;;
16314;SDS011;8266;52.150;4.768;2023-02-15T12:33:55;33.25;;;26.40;;
16314;SDS011;8266;52.150;4.768;2023-02-15T12:36:29;30.60;;;24.88;;
16314;SDS011;8266;52.150;4.768;2023-02-15T12:39:16;31.27;;;26.13;;
16314;SDS011;8266;52.150;4.768;2023-02-15T12:41:46;30.80;;;24.52;;
16314;SDS011;8266;52.150;4.768;2023-02-15T12:44:24;32.92;;;24.55;;
16314;SDS011;8266;52.150;4.768;2023-02-15T12:47:00;29.45;;;23.60;;
16314;SDS011;8266;52.150;4.768;2023-02-15T12:49:29;30.35;;;23.88;;
16314;SDS011;8266;52.150;4.768;2023-02-15T12:51:58;31.25;;;24.60;;
16314;SDS011;8266;52.150;4.768;2023-02-15T12:54:28;35.08;;;25.13;;
16314;SDS011;8266;52.150;4.768;2023-02-15T12:59:52;28.25;;;24.17;;
16314;SDS011;8266;52.150;4.768;2023-02-15T13:02:24;31.52;;;24.83;;
16314;SDS011;8266;52.150;4.768;2023-02-15T13:04:54;30.60;;;23.60;;
16314;SDS011;8266;52.150;4.768;2023-02-15T13:07:23;30.45;;;24.27;;
16314;SDS011;8266;52.150;4.768;2023-02-15T13:09:56;29.05;;;24.05;;
16314;SDS011;8266;52.150;4.768;2023-02-15T13:12:23;30.55;;;24.67;;
16314;SDS011;8266;52.150;4.768;2023-02-15T13:14:55;30.48;;;24.23;;
16314;SDS011;8266;52.150;4.768;2023-02-15T13:17:26;31.20;;;25.05;;
16314;SDS011;8266;52.150;4.768;2023-02-15T13:19:57;31.58;;;24.92;;
16314;SDS011;8266;52.150;4.768;2023-02-15T13:22:31;33.33;;;24.65;;
16314;SDS011;8266;52.150;4.768;2023-02-15T13:25:04;28.55;;;22.95;;
16314;SDS011;8266;52.150;4.768;2023-02-15T13:27:39;29.40;;;23.95;;
16314;SDS011;8266;52.150;4.768;2023-02-15T13:30:13;31.10;;;25.15;;
16314;SDS011;8266;52.150;4.768;2023-02-15T13:32:49;28.88;;;23.48;;
16314;SDS011;8266;52.150;4.768;2023-02-15T13:35:20;29.48;;;23.08;;
16314;SDS011;8266;52.150;4.768;2023-02-15T13:37:55;31.08;;;23.08;;
16314;SDS011;8266;52.150;4.768;2023-02-15T13:40:31;31.55;;;22.65;;
16314;SDS011;8266;52.150;4.768;2023-02-15T13:43:02;28.08;;;23.02;;
16314;SDS011;8266;52.150;4.768;2023-02-15T13:45:38;29.48;;;22.98;;
16314;SDS011;8266;52.150;4.768;2023-02-15T13:48:16;27.42;;;22.05;;
16314;SDS011;8266;52.150;4.768;2023-02-15T13:50:56;29.17;;;22.83;;
16314;SDS011;8266;52.150;4.768;2023-02-15T13:53:39;30.45;;;23.27;;
16314;SDS011;8266;52.150;4.768;2023-02-15T13:56:22;28.48;;;20.27;;
16314;SDS011;8266;52.150;4.768;2023-02-15T14:01:56;30.25;;;22.77;;
16314;SDS011;8266;52.150;4.768;2023-02-15T14:07:26;26.67;;;21.80;;
16314;SDS011;8266;52.150;4.768;2023-02-15T14:10:02;29.02;;;22.58;;
16314;SDS011;8266;52.150;4.768;2023-02-15T14:12:50;27.77;;;22.17;;
16314;SDS011;8266;52.150;4.768;2023-02-15T14:15:32;27.70;;;21.63;;
16314;SDS011;8266;52.150;4.768;2023-02-15T14:18:10;27.67;;;22.08;;
16314;SDS011;8266;52.150;4.768;2023-02-15T14:20:50;27.85;;;21.40;;
16314;SDS011;8266;52.150;4.768;2023-02-15T14:23:29;25.88;;;21.63;;
16314;SDS011;8266;52.150;4.768;2023-02-15T14:26:05;28.00;;;21.77;;
16314;SDS011;8266;52.150;4.768;2023-02-15T14:28:39;29.17;;;21.83;;
16314;SDS011;8266;52.150;4.768;2023-02-15T14:31:12;29.77;;;21.30;;
16314;SDS011;8266;52.150;4.768;2023-02-15T14:33:43;33.38;;;21.58;;
16314;SDS011;8266;52.150;4.768;2023-02-15T14:36:17;23.10;;;19.50;;
16314;SDS011;8266;52.150;4.768;2023-02-15T14:38:58;26.30;;;20.48;;
16314;SDS011;8266;52.150;4.768;2023-02-15T14:41:53;29.48;;;20.67;;
16314;SDS011;8266;52.150;4.768;2023-02-15T14:44:26;26.90;;;19.85;;
16314;SDS011;8266;52.150;4.768;2023-02-15T14:47:01;26.15;;;20.58;;
16314;SDS011;8266;52.150;4.768;2023-02-15T14:49:32;28.10;;;20.73;;
16314;SDS011;8266;52.150;4.768;2023-02-15T14:52:04;27.73;;;20.35;;
16314;SDS011;8266;52.150;4.768;2023-02-15T14:57:24;27.52;;;19.70;;
16314;SDS011;8266;52.150;4.768;2023-02-15T14:59:54;26.13;;;20.00;;
16314;SDS011;8266;52.150;4.768;2023-02-15T15:02:24;27.55;;;19.20;;
16314;SDS011;8266;52.150;4.768;2023-02-15T15:04:59;26.08;;;18.77;;
16314;SDS011;8266;52.150;4.768;2023-02-15T15:07:37;24.80;;;19.05;;
16314;SDS011;8266;52.150;4.768;2023-02-15T15:18:57;25.60;;;19.67;;
16314;SDS011;8266;52.150;4.768;2023-02-15T15:42:48;28.05;;;20.60;;
16314;SDS011;8266;52.150;4.768;2023-02-15T15:48:31;27.42;;;20.77;;
16314;SDS011;8266;52.150;4.768;2023-02-15T15:51:00;32.45;;;22.38;;
16314;SDS011;8266;52.150;4.768;2023-02-15T15:53:33;27.30;;;22.05;;
16314;SDS011;8266;52.150;4.768;2023-02-15T15:56:07;29.38;;;21.75;;
16314;SDS011;8266;52.150;4.768;2023-02-15T15:58:40;27.92;;;22.52;;
16314;SDS011;8266;52.150;4.768;2023-02-15T16:01:10;34.55;;;22.80;;
16314;SDS011;8266;52.150;4.768;2023-02-15T16:03:38;33.35;;;24.88;;
16314;SDS011;8266;52.150;4.768;2023-02-15T16:06:14;25.80;;;21.63;;
16314;SDS011;8266;52.150;4.768;2023-02-15T16:08:54;30.42;;;21.67;;
16314;SDS011;8266;52.150;4.768;2023-02-15T16:11:23;31.38;;;24.23;;
16314;SDS011;8266;52.150;4.768;2023-02-15T16:13:52;31.17;;;24.27;;
16314;SDS011;8266;52.150;4.768;2023-02-15T16:16:20;30.73;;;22.73;;